createdAt,value
2023-02-19T01:15:49.796Z,0.1
2023-02-19T01:20:50.098Z,0.1
2023-02-19T01:25:49.448Z,0.4
2023-02-19T01:30:49.683Z,0.4
2023-02-19T01:35:49.928Z,0.4
2023-02-19T01:40:49.293Z,0.4
2023-02-19T01:45:49.800Z,0.9
2023-02-19T01:50:49.275Z,0.9
2023-02-19T01:55:49.625Z,1.3
2023-02-19T02:00:49.910Z,1.3
2023-02-19T02:05:49.157Z,0.9
2023-02-19T02:10:49.464Z,0.9
2023-02-19T02:15:49.817Z,1.3
2023-02-19T02:20:49.304Z,1.3
2023-02-19T02:25:49.764Z,0.9
2023-02-19T02:30:49.295Z,0.9
2023-02-19T02:35:49.966Z,0.9
2023-02-19T02:40:49.192Z,0.9
2023-02-19T02:45:49.578Z,0.8
2023-02-19T02:50:49.793Z,0.8
2023-02-19T02:55:49.594Z,0.9
2023-02-19T03:00:49.465Z,0.9
2023-02-19T03:05:53.533Z,0.9
2023-02-19T03:10:49.856Z,0.9
2023-02-19T03:15:50.039Z,0.4
2023-02-19T03:20:49.257Z,0.4
2023-02-19T03:25:49.412Z,0.4
2023-02-19T03:30:49.548Z,0.4
2023-02-19T03:35:49.461Z,0.4
2023-02-19T03:40:49.451Z,0.4
2023-02-19T03:45:49.831Z,0.4
2023-02-19T03:50:49.241Z,0.4
2023-02-19T03:55:49.561Z,0.4
2023-02-19T04:00:49.444Z,0.4
2023-02-19T04:05:49.587Z,0.4
2023-02-19T04:10:49.768Z,0.4
2023-02-19T04:15:49.810Z,0.4
2023-02-19T04:20:49.293Z,0.4
2023-02-19T04:25:49.886Z,0.4
2023-02-19T04:30:49.632Z,0.4
2023-02-19T04:35:49.881Z,0.4
2023-02-19T04:40:50.182Z,0.4
2023-02-19T07:35:49.906Z,0.4
2023-02-19T07:40:49.509Z,0.4
2023-02-19T07:45:49.496Z,0.4
2023-02-19T07:50:49.817Z,0.4
2023-02-19T07:55:50.021Z,0.6
2023-02-19T08:00:49.547Z,0.6
2023-02-19T08:05:49.829Z,0.9
2023-02-19T08:10:50.245Z,0.9
2023-02-19T08:15:49.450Z,0.4
2023-02-19T08:20:49.774Z,0.4
2023-02-19T08:25:50.034Z,0.7
2023-02-19T08:30:50.391Z,0.7
2023-02-19T08:35:49.590Z,1
2023-02-19T08:40:49.922Z,1
2023-02-19T08:45:50.372Z,0.9
2023-02-19T09:25:49.605Z,1.3
2023-02-19T09:30:50.190Z,1.3
2023-02-19T09:35:50.150Z,2.2
2023-02-19T09:40:50.356Z,2.2
2023-02-19T09:45:49.547Z,1.7
2023-02-19T09:50:49.906Z,1.7
2023-02-19T09:55:50.300Z,1.8
2023-02-19T10:00:49.767Z,1.8
2023-02-19T10:05:49.737Z,1.8
2023-02-19T10:10:50.352Z,1.8
2023-02-19T10:15:50.107Z,1.8
2023-02-19T10:20:49.473Z,1.8
2023-02-19T10:25:49.534Z,2.2
2023-02-19T10:30:49.935Z,2.2
2023-02-19T11:15:50.080Z,2.2
2023-02-19T11:20:50.375Z,2.2
2023-02-19T11:25:49.698Z,2.5
2023-02-19T11:30:49.800Z,2.5
2023-02-19T11:35:49.999Z,2.2
2023-02-19T11:40:50.298Z,2.2
2023-02-19T11:45:49.853Z,2.2
2023-02-19T11:50:50.064Z,2.2
2023-02-19T11:55:50.294Z,2.8
2023-02-19T12:00:49.483Z,2.8
2023-02-19T12:05:49.582Z,2.7
2023-02-19T12:10:49.962Z,2.7
2023-02-19T12:15:50.153Z,2.4
2023-02-19T12:20:50.336Z,2.4
2023-02-19T12:25:49.627Z,2.2
2023-02-19T12:30:49.767Z,2.2
2023-02-19T12:35:50.295Z,2.2
2023-02-19T12:40:50.486Z,2.2
2023-02-19T12:45:49.954Z,1.9
2023-02-19T12:50:50.359Z,1.9
2023-02-19T12:55:49.587Z,2.5
2023-02-19T13:00:50.814Z,2.5
2023-02-19T13:05:50.097Z,2.4
2023-02-19T13:10:50.725Z,2.4
2023-02-19T13:15:50.038Z,1.7
2023-02-19T13:20:50.327Z,1.7
2023-02-19T13:25:49.581Z,1.9
2023-02-19T13:30:50.489Z,1.9
2023-02-19T13:35:49.804Z,2.2
2023-02-19T13:40:50.034Z,2.2
2023-02-19T13:45:50.277Z,1.8
2023-02-19T13:50:49.588Z,1.8
2023-02-19T13:55:49.845Z,2
2023-02-19T14:00:50.212Z,2
2023-02-19T14:05:49.703Z,2.2
2023-02-19T14:10:50.053Z,2.2
2023-02-19T14:15:49.898Z,2.6
2023-02-19T14:20:50.278Z,2.6
2023-02-19T14:25:50.244Z,2.5
2023-02-19T14:30:50.264Z,2.5
2023-02-19T14:35:49.610Z,1.3
2023-02-19T14:40:50.002Z,1.3
2023-02-19T14:45:50.207Z,2.1
2023-02-19T14:50:50.577Z,2.1
2023-02-19T14:55:50.232Z,1.2
2023-02-19T15:00:50.541Z,1.2
2023-02-19T15:05:50.403Z,1.4
2023-02-19T15:10:50.493Z,1.4
2023-02-19T15:15:50.146Z,1.8
2023-02-19T15:20:50.531Z,1.8
2023-02-19T15:25:50.088Z,1.1
2023-02-19T15:30:50.306Z,1.1
2023-02-19T15:35:49.798Z,1.2
2023-02-19T15:40:49.633Z,1.2
2023-02-19T15:45:50.048Z,0.4
2023-02-19T15:50:50.344Z,0.4
2023-02-19T15:55:50.333Z,0.4
2023-02-19T16:00:49.862Z,0.4
2023-02-19T16:05:49.860Z,0.4
2023-02-19T16:10:50.520Z,0.4
2023-02-19T16:15:50.437Z,0.4
2023-02-19T16:20:50.273Z,0.4
2023-02-19T16:25:50.617Z,0
2023-02-19T16:30:49.956Z,0
2023-02-19T16:35:50.494Z,0.4
2023-02-19T16:40:50.002Z,0.4
2023-02-19T16:45:50.537Z,0.4
2023-02-19T16:50:49.764Z,0.4
2023-02-19T16:55:50.063Z,0.4
2023-02-19T17:00:50.484Z,0.4
2023-02-19T17:05:50.202Z,0.4
2023-02-19T17:10:50.506Z,0.4
2023-02-19T17:15:49.644Z,0.4
2023-02-19T17:20:49.890Z,0.4
2023-02-19T17:25:50.170Z,0.4
2023-02-19T17:30:50.455Z,0.4
2023-02-19T17:35:50.541Z,0.4
2023-02-19T17:40:49.788Z,0.4
2023-02-19T17:45:50.104Z,0.2
2023-02-19T17:50:50.382Z,0.2
2023-02-19T17:55:49.720Z,0.9
2023-02-19T18:00:49.909Z,0.9
2023-02-19T18:05:50.199Z,0.5
2023-02-19T18:10:50.534Z,0.5
2023-02-19T18:15:49.700Z,0.5
2023-02-19T18:20:49.998Z,0.5
2023-02-19T18:25:50.265Z,0.9
2023-02-19T18:30:51.158Z,0.9
2023-02-19T18:35:50.570Z,0.9
2023-02-19T18:40:49.925Z,0.9
2023-02-19T18:45:50.293Z,0.9
2023-02-19T18:50:50.521Z,0.9
2023-02-19T18:55:50.648Z,0.9
2023-02-19T19:00:49.968Z,0.9
2023-02-19T19:05:50.118Z,0.9
2023-02-19T19:10:50.458Z,0.9
2023-02-19T19:15:49.882Z,0.4
2023-02-19T19:20:50.689Z,0.4
2023-02-19T19:25:50.512Z,0.8
2023-02-19T19:30:49.955Z,0.8
2023-02-19T19:35:50.069Z,0.9
2023-02-19T19:40:50.291Z,0.9
2023-02-19T19:45:50.498Z,0.9
2023-02-19T19:50:49.888Z,0.9
2023-02-19T19:55:50.196Z,0.9
2023-02-19T20:00:50.393Z,0.9
2023-02-19T20:05:50.581Z,0.9
2023-02-19T20:10:49.914Z,0.9
2023-02-19T20:15:50.166Z,0.9
2023-02-19T20:20:50.420Z,0.9
2023-02-19T20:25:50.610Z,0.9
2023-02-19T20:30:50.157Z,0.9
2023-02-19T20:35:50.620Z,0.6
2023-02-19T20:40:49.989Z,0.6
2023-02-19T20:45:50.211Z,1.1
2023-02-19T20:50:50.507Z,1.1
2023-02-19T20:55:49.822Z,1.3
2023-02-19T21:00:50.076Z,1.3
2023-02-19T21:05:50.540Z,1.3
2023-02-19T21:10:50.405Z,1.3
2023-02-19T21:15:50.799Z,1
2023-02-19T21:20:50.579Z,1
2023-02-19T21:25:49.795Z,1.4
2023-02-19T21:30:50.110Z,1.4
2023-02-19T21:35:50.136Z,1.3
2023-02-19T21:40:50.159Z,1.3
2023-02-19T21:45:50.578Z,1.8
2023-02-19T21:50:50.597Z,1.8
2023-02-19T21:55:59.073Z,1.1
2023-02-19T22:00:50.692Z,1.1
2023-02-19T22:05:50.397Z,1.4
2023-02-19T22:10:50.646Z,1.4
2023-02-19T22:15:49.879Z,1.8
2023-02-19T22:20:50.169Z,1.8
2023-02-19T22:25:50.417Z,2.2
2023-02-19T22:30:50.915Z,2.2
2023-02-19T22:35:50.245Z,1.6
2023-02-19T22:40:50.612Z,1.6
2023-02-19T22:45:49.985Z,1.8
2023-02-19T22:50:50.408Z,1.8
2023-02-19T22:55:50.753Z,1.8
2023-02-19T23:00:50.134Z,1.8
2023-02-19T23:05:50.037Z,2.2
2023-02-19T23:10:50.174Z,2.2
2023-02-19T23:15:50.679Z,2.2
2023-02-19T23:20:50.025Z,2.2
2023-02-19T23:25:50.256Z,2.3
2023-02-19T23:30:50.997Z,2.3
2023-02-19T23:35:50.392Z,2.1
2023-02-19T23:40:50.131Z,2.1
2023-02-19T23:45:50.460Z,1.8
2023-02-19T23:55:50.527Z,2.3
